Time;durP1;ratioP1;P1;durP2;ratioP2;P2;SDS_P1;SDS_P2;PMS_P1;PMS_P2;Temp;Humidity;BMP_temperature;BMP_pressure;BME280_temperature;BME280_humidity;BME280_pressure;Samples;Min_cycle;Max_cycle;Signal;HPM_P1;HPM_P2
2021/12/10 00:00:38;;;;;;;;;1.00;1.00;;;;;20.57;32.77;98941.81;5056878;28;45520;-53
2021/12/10 00:03:07;;;;;;;;;1.00;1.00;;;;;20.54;32.93;98927.13;5056523;28;45496;-53
2021/12/10 00:05:37;;;;;;;;;0.00;0.00;;;;;20.53;33.00;98914.13;5056497;28;45473;-51
2021/12/10 00:08:06;;;;;;;;;1.00;1.00;;;;;20.52;33.33;98896.66;5056704;28;45440;-52
2021/12/10 00:10:36;;;;;;;;;0.00;0.00;;;;;20.52;33.44;98886.94;5056706;28;45510;-51
2021/12/10 00:13:05;;;;;;;;;1.50;0.00;;;;;20.50;32.67;98872.28;5056428;28;45450;-52
2021/12/10 00:15:33;;;;;;;;;0.50;0.50;;;;;20.50;32.87;98859.97;5056311;28;45891;-50
2021/12/10 00:18:04;;;;;;;;;0.00;0.00;;;;;20.48;32.99;98853.13;5056411;28;45518;-52
2021/12/10 00:20:32;;;;;;;;;3.75;0.75;;;;;20.47;32.89;98848.84;5056666;28;45251;-53
2021/12/10 00:23:02;;;;;;;;;0.00;0.00;;;;;20.46;32.91;98834.00;5038234;28;46446;-53
2021/12/10 00:25:37;;;;;;;;;0.00;0.00;;;;;20.44;33.18;98821.00;5056335;28;45904;-51
2021/12/10 00:28:25;;;;;;;;;0.00;0.00;;;;;20.43;33.29;98794.84;5056436;28;45408;-53
2021/12/10 00:31:21;;;;;;;;;0.00;0.00;;;;;20.43;33.10;98769.34;5059829;28;45521;-49
2021/12/10 00:33:58;;;;;;;;;0.00;0.00;;;;;20.41;33.42;98752.84;5059975;28;46812;-51
2021/12/10 00:36:24;;;;;;;;;0.00;0.00;;;;;20.38;33.33;98734.72;5059855;28;45336;-51
2021/12/10 00:38:51;;;;;;;;;0.00;0.00;;;;;20.36;33.38;98734.84;5059890;28;45316;-52
2021/12/10 00:41:18;;;;;;;;;0.00;0.00;;;;;20.35;32.87;98748.13;5060124;28;45541;-52
2021/12/10 00:43:44;;;;;;;;;0.00;0.00;;;;;20.35;33.04;98759.47;5059577;28;46145;-52
2021/12/10 00:46:10;;;;;;;;;0.75;0.75;;;;;20.33;32.93;98764.06;5059584;28;45362;-53
2021/12/10 00:48:36;;;;;;;;;0.50;0.50;;;;;20.32;33.54;98767.66;5059709;28;45408;-52
2021/12/10 00:51:04;;;;;;;;;1.00;1.00;;;;;20.31;33.13;98752.84;5059754;28;45589;-53
2021/12/10 00:53:29;;;;;;;;;0.25;0.25;;;;;20.29;32.97;98733.72;5059487;28;45262;-52
2021/12/10 00:55:55;;;;;;;;;0.00;0.00;;;;;20.28;33.31;98718.09;5059495;28;45674;-51
2021/12/10 00:58:24;;;;;;;;;0.00;0.00;;;;;20.28;33.69;98718.91;5041344;28;45322;-52
2021/12/10 01:00:55;;;;;;;;;1.00;0.00;;;;;20.26;33.24;98701.59;5041584;28;45498;-50
2021/12/10 01:03:30;;;;;;;;;1.00;0.00;;;;;20.25;33.23;98692.88;5059261;28;46111;-52
2021/12/10 01:06:00;;;;;;;;;0.00;0.00;;;;;20.25;33.24;98669.19;5059393;28;45698;-49
2021/12/10 01:08:27;;;;;;;;;0.00;0.00;;;;;20.24;33.62;98668.38;5059430;28;45358;-52
2021/12/10 01:11:07;;;;;;;;;0.00;0.00;;;;;20.23;33.66;98660.59;5059261;28;45398;-51
2021/12/10 01:13:35;;;;;;;;;0.00;0.00;;;;;20.22;33.53;98644.00;5059222;28;46427;-51
2021/12/10 01:24:06;;;;;;;;;0.00;0.00;;;;;20.17;33.30;98619.91;5058946;28;45407;-48
2021/12/10 01:27:02;;;;;;;;;0.00;0.00;;;;;20.17;33.29;98616.44;5059116;28;45429;-49
2021/12/10 01:29:31;;;;;;;;;0.00;0.00;;;;;20.16;33.44;98612.16;5058613;28;45176;-51
2021/12/10 01:31:58;;;;;;;;;0.00;0.00;;;;;20.16;33.54;98601.63;5059380;28;45319;-52
2021/12/10 01:34:24;;;;;;;;;0.00;0.00;;;;;20.12;33.54;98606.34;5040776;28;48625;-52
2021/12/10 01:36:51;;;;;;;;;0.00;0.00;;;;;20.12;33.32;98605.53;5059208;28;45601;-49
2021/12/10 01:39:22;;;;;;;;;0.00;0.00;;;;;20.13;33.74;98599.25;5058908;28;45328;-50
2021/12/10 01:41:55;;;;;;;;;1.00;0.00;;;;;20.12;33.23;98592.38;5058373;28;45403;-48
2021/12/10 01:44:29;;;;;;;;;0.75;0.00;;;;;20.10;33.44;98589.84;5058915;28;46114;-50
2021/12/10 01:46:57;;;;;;;;;1.00;0.00;;;;;20.10;33.55;98589.84;5058847;28;45222;-52
2021/12/10 01:49:23;;;;;;;;;1.00;0.00;;;;;20.07;33.80;98580.44;5058928;28;45307;-50
2021/12/10 01:51:49;;;;;;;;;0.00;0.00;;;;;20.06;33.49;98570.91;5059277;28;45451;-52
2021/12/10 01:54:21;;;;;;;;;0.00;0.00;;;;;20.06;33.47;98565.63;5058571;28;45399;-49
2021/12/10 01:56:49;;;;;;;;;0.00;0.00;;;;;20.06;33.94;98551.69;5058611;28;45264;-52
2021/12/10 01:59:18;;;;;;;;;0.00;0.00;;;;;20.05;33.39;98542.94;5040540;28;45344;-51
2021/12/10 02:01:49;;;;;;;;;0.00;0.00;;;;;20.02;33.43;98543.22;5059087;28;45447;-52
2021/12/10 02:04:17;;;;;;;;;0.00;0.00;;;;;20.02;33.86;98542.38;5058369;28;45351;-50
2021/12/10 02:06:43;;;;;;;;;0.00;0.00;;;;;20.01;33.69;98540.72;5058405;28;45328;-52
2021/12/10 02:09:10;;;;;;;;;0.00;0.00;;;;;19.97;34.15;98531.44;5058367;28;45376;-51
2021/12/10 02:11:36;;;;;;;;;0.00;0.00;;;;;20.01;34.03;98535.47;5058809;28;45446;-51
2021/12/10 02:14:02;;;;;;;;;0.00;0.00;;;;;20.04;34.26;98530.75;5058369;28;45367;-52
2021/12/10 02:16:28;;;;;;;;;0.00;0.00;;;;;20.07;34.24;98524.38;5058374;28;45281;-53
2021/12/10 02:18:54;;;;;;;;;0.00;0.00;;;;;20.10;34.00;98518.03;5058563;28;45430;-52
2021/12/10 02:21:22;;;;;;;;;0.00;0.00;;;;;20.16;34.15;98523.56;5058812;28;45269;-52
2021/12/10 02:23:56;;;;;;;;;1.25;0.00;;;;;20.22;33.92;98512.50;5058175;28;46516;-52
2021/12/10 02:26:25;;;;;;;;;0.00;0.00;;;;;20.26;33.74;98502.50;5058535;28;45827;-50
2021/12/10 02:28:51;;;;;;;;;0.00;0.00;;;;;20.33;34.21;98479.94;5058500;28;45348;-50
2021/12/10 02:31:16;;;;;;;;;0.00;0.00;;;;;20.40;34.15;98477.56;5058497;28;45529;-49
2021/12/10 02:33:43;;;;;;;;;0.00;0.00;;;;;20.47;34.16;98483.09;5057957;28;45838;-49
2021/12/10 02:36:12;;;;;;;;;0.00;0.00;;;;;20.51;33.51;98487.09;5058005;28;45698;-49
2021/12/10 02:38:44;;;;;;;;;0.00;0.00;;;;;20.55;33.93;98491.13;5058197;28;45382;-52
2021/12/10 02:41:09;;;;;;;;;0.00;0.00;;;;;20.63;33.35;98501.75;5058188;28;45284;-52
2021/12/10 02:43:36;;;;;;;;;0.00;0.00;;;;;20.65;33.58;98502.47;5057818;28;45542;-53
2021/12/10 02:46:03;;;;;;;;;1.00;0.00;;;;;20.70;33.84;98500.22;5057727;28;45285;-51
2021/12/10 02:48:28;;;;;;;;;0.00;0.00;;;;;20.73;33.50;98482.47;5057909;28;45289;-53
2021/12/10 02:50:55;;;;;;;;;0.00;0.00;;;;;20.77;33.92;98478.63;5058321;28;45284;-50
2021/12/10 02:53:26;;;;;;;;;0.00;0.00;;;;;20.79;33.83;98453.81;5057914;28;46002;-52
2021/12/10 02:55:53;;;;;;;;;0.00;0.00;;;;;20.83;33.80;98467.50;5058033;28;45341;-49
2021/12/10 02:58:19;;;;;;;;;0.00;0.00;;;;;20.84;33.22;98469.16;5057736;28;45320;-52
2021/12/10 03:00:56;;;;;;;;;0.00;0.00;;;;;20.87;33.36;98460.13;5057786;28;45517;-51
2021/12/10 03:03:21;;;;;;;;;0.00;0.00;;;;;20.85;33.33;98442.69;5057549;28;45563;-51
2021/12/10 03:05:48;;;;;;;;;0.00;0.00;;;;;20.89;33.30;98445.03;5057349;28;45378;-52
2021/12/10 03:08:14;;;;;;;;;0.00;0.00;;;;;20.89;33.54;98440.59;5057692;28;45362;-51
2021/12/10 03:10:40;;;;;;;;;0.00;0.00;;;;;20.92;33.76;98455.28;5057569;28;45445;-52
2021/12/10 03:13:06;;;;;;;;;0.00;0.00;;;;;20.89;33.26;98456.38;5057112;28;47054;-51
2021/12/10 03:15:34;;;;;;;;;0.00;0.00;;;;;20.92;33.88;98456.09;5057297;28;45459;-52
2021/12/10 03:18:01;;;;;;;;;0.00;0.00;;;;;20.93;33.33;98455.13;5057422;28;45465;-50
2021/12/10 03:20:30;;;;;;;;;0.00;0.00;;;;;20.91;33.75;98458.88;5057668;28;45585;-50
2021/12/10 03:22:57;;;;;;;;;0.00;0.00;;;;;20.91;33.27;98464.97;5057268;28;47543;-52
2021/12/10 03:25:23;;;;;;;;;0.00;0.00;;;;;20.90;33.43;98471.22;5057508;28;45334;-54
2021/12/10 03:27:49;;;;;;;;;0.00;0.00;;;;;20.89;33.78;98466.09;5057205;28;45379;-51
2021/12/10 03:30:20;;;;;;;;;0.00;0.00;;;;;20.87;33.57;98458.34;5039209;28;45237;-52
2021/12/10 03:32:46;;;;;;;;;0.00;0.00;;;;;20.87;33.62;98458.34;5056907;28;46483;-52
2021/12/10 03:35:18;;;;;;;;;0.00;0.00;;;;;20.86;33.90;98461.97;5056970;28;45310;-52
2021/12/10 03:37:45;;;;;;;;;0.00;0.00;;;;;20.85;33.95;98466.38;5057193;28;45390;-53
2021/12/10 03:40:13;;;;;;;;;0.00;0.00;;;;;20.85;33.78;98466.38;5057124;28;45620;-53
2021/12/10 03:42:39;;;;;;;;;0.00;0.00;;;;;20.84;33.51;98463.91;5056704;28;46926;-52
2021/12/10 03:45:09;;;;;;;;;0.00;0.00;;;;;20.82;34.08;98466.69;5056814;28;45289;-51
2021/12/10 03:47:34;;;;;;;;;0.00;0.00;;;;;20.80;33.38;98473.06;5057021;28;45456;-51
2021/12/10 03:50:00;;;;;;;;;0.00;0.00;;;;;20.81;33.77;98469.44;5057119;28;45259;-52
2021/12/10 03:52:25;;;;;;;;;0.00;0.00;;;;;20.78;34.09;98464.50;5056913;28;46455;-54
2021/12/10 03:54:51;;;;;;;;;0.00;0.00;;;;;20.78;34.00;98464.50;5038409;28;45515;-53
2021/12/10 03:57:18;;;;;;;;;0.00;0.00;;;;;20.78;34.02;98470.56;5056839;28;45417;-53
2021/12/10 03:59:43;;;;;;;;;0.00;0.00;;;;;20.78;33.80;98475.03;5056944;28;45474;-52
2021/12/10 04:02:09;;;;;;;;;0.00;0.00;;;;;20.76;33.76;98474.34;5056591;28;46487;-50
2021/12/10 04:04:42;;;;;;;;;0.00;0.00;;;;;20.77;33.82;98468.91;5055973;28;45789;-52
2021/12/10 04:07:12;;;;;;;;;0.00;0.00;;;;;20.76;34.13;98479.59;5056749;28;45313;-52
2021/12/10 04:09:38;;;;;;;;;0.00;0.00;;;;;20.74;33.88;98478.88;5056846;28;45387;-50
2021/12/10 04:12:04;;;;;;;;;0.00;0.00;;;;;20.74;34.18;98477.09;5056504;28;46254;-51
2021/12/10 04:14:30;;;;;;;;;0.00;0.00;;;;;20.72;33.84;98470.28;5056678;28;45964;-52
2021/12/10 04:16:57;;;;;;;;;0.00;0.00;;;;;20.69;34.17;98466.97;5056820;28;45496;-49
2021/12/10 04:19:28;;;;;;;;;0.00;0.00;;;;;20.68;34.24;98473.19;5038528;28;45657;-52
2021/12/10 04:21:57;;;;;;;;;1.00;0.00;;;;;20.69;34.33;98471.41;5056137;28;46860;-51
2021/12/10 04:24:25;;;;;;;;;0.00;0.00;;;;;20.67;34.54;98479.44;5056286;28;45408;-49
2021/12/10 04:26:51;;;;;;;;;0.00;0.00;;;;;20.65;34.38;98486.66;5038472;28;45448;-50
2021/12/10 04:29:20;;;;;;;;;0.00;0.00;;;;;20.66;34.18;98472.53;5056512;28;45624;-54
2021/12/10 04:31:50;;;;;;;;;0.00;0.00;;;;;20.65;34.11;98483.19;5056271;28;45720;-50
2021/12/10 04:34:15;;;;;;;;;0.00;0.00;;;;;20.63;34.14;98471.97;5056218;28;45775;-52
2021/12/10 04:36:41;;;;;;;;;0.00;0.00;;;;;20.63;34.54;98480.72;5056407;28;45419;-53
2021/12/10 04:39:07;;;;;;;;;0.00;0.00;;;;;20.62;34.71;98483.47;5056532;28;45335;-53
2021/12/10 04:41:32;;;;;;;;;0.00;0.00;;;;;20.61;34.81;98480.03;5056137;28;45643;-49
2021/12/10 04:43:57;;;;;;;;;0.00;0.00;;;;;20.60;34.40;98488.88;5056416;28;45224;-53
2021/12/10 04:46:23;;;;;;;;;0.00;0.00;;;;;20.59;34.54;98492.47;5056211;28;45266;-50
2021/12/10 04:48:54;;;;;;;;;1.00;0.00;;;;;20.58;34.82;98496.09;5056289;28;45221;-50
2021/12/10 04:51:25;;;;;;;;;0.00;0.00;;;;;20.54;34.46;98495.53;5054397;28;46407;-52
2021/12/10 04:53:53;;;;;;;;;0.00;0.00;;;;;20.57;34.70;98493.59;5055969;28;45662;-53
2021/12/10 04:56:18;;;;;;;;;0.00;0.00;;;;;20.56;34.75;98498.03;5056003;28;45705;-51
2021/12/10 04:58:44;;;;;;;;;0.00;0.00;;;;;20.50;34.66;98483.66;5056222;28;45462;-51
2021/12/10 05:01:09;;;;;;;;;1.00;0.00;;;;;20.52;35.11;98486.97;5037777;28;47349;-51
2021/12/10 05:03:34;;;;;;;;;1.00;0.00;;;;;20.52;34.97;98486.13;5055721;28;45252;-50
2021/12/10 05:06:03;;;;;;;;;0.00;0.00;;;;;20.51;35.07;98500.25;5038075;28;45342;-52
2021/12/10 05:08:31;;;;;;;;;0.00;0.00;;;;;20.50;35.25;98501.22;5056437;28;45629;-51
2021/12/10 05:10:56;;;;;;;;;0.00;0.00;;;;;20.50;34.59;98499.44;5055646;28;46275;-54
2021/12/10 05:13:22;;;;;;;;;0.00;0.00;;;;;20.48;34.72;98508.44;5054962;28;45382;-50
2021/12/10 05:15:54;;;;;;;;;0.00;0.00;;;;;20.49;35.07;98507.47;5056933;28;45691;-52
2021/12/10 05:18:20;;;;;;;;;0.00;0.00;;;;;20.46;35.04;98498.06;5041305;28;45527;-51
2021/12/10 05:20:48;;;;;;;;;0.00;0.00;;;;;20.45;35.40;98521.91;5059026;28;46044;-52
2021/12/10 05:23:16;;;;;;;;;0.00;0.00;;;;;20.48;35.04;98521.59;5059038;28;45425;-50
2021/12/10 05:25:42;;;;;;;;;0.00;0.00;;;;;20.48;35.39;98535.59;5059186;28;45312;-51
2021/12/10 05:28:07;;;;;;;;;0.50;0.50;;;;;20.48;35.51;98527.69;5041172;28;45330;-50
2021/12/10 05:30:34;;;;;;;;;1.00;1.00;;;;;20.52;35.32;98541.41;5058952;28;46269;-50
2021/12/10 05:33:01;;;;;;;;;0.00;0.00;;;;;20.53;35.33;98545.69;5059201;28;45879;-52
2021/12/10 05:35:31;;;;;;;;;0.00;0.00;;;;;20.58;35.19;98547.91;5041165;28;45374;-51
2021/12/10 05:37:57;;;;;;;;;0.00;0.00;;;;;20.62;35.65;98559.78;5059224;28;45588;-51
2021/12/10 05:40:23;;;;;;;;;0.25;0.00;;;;;20.68;35.04;98569.78;5058768;28;46548;-52
2021/12/10 05:42:49;;;;;;;;;0.00;0.00;;;;;20.70;35.17;98568.66;5058882;28;45285;-52
2021/12/10 05:45:16;;;;;;;;;0.00;0.00;;;;;20.76;35.45;98566.47;5059004;28;45304;-49
2021/12/10 05:47:43;;;;;;;;;2.00;1.00;;;;;20.81;35.32;98574.75;5058957;28;45628;-50
2021/12/10 05:50:10;;;;;;;;;0.00;0.00;;;;;20.83;35.55;98581.56;5058508;28;45494;-51
2021/12/10 05:52:36;;;;;;;;;0.00;0.00;;;;;20.88;34.89;98591.66;5058588;28;45694;-53
2021/12/10 05:55:03;;;;;;;;;2.00;1.00;;;;;20.92;35.00;98592.22;5059058;28;45280;-53
2021/12/10 05:57:29;;;;;;;;;0.00;0.00;;;;;20.95;35.10;98595.38;5058861;28;45610;-52
2021/12/10 05:59:54;;;;;;;;;0.00;0.00;;;;;20.96;34.96;98589.13;5058364;28;45381;-53
2021/12/10 06:02:20;;;;;;;;;0.00;0.00;;;;;21.00;35.51;98600.22;5058500;28;45339;-50
2021/12/10 06:04:45;;;;;;;;;0.25;0.25;;;;;21.03;34.87;98593.81;5058686;28;45343;-52
2021/12/10 06:07:11;;;;;;;;;1.00;0.00;;;;;21.06;35.26;98606.72;5058611;28;45590;-52
2021/12/10 06:09:36;;;;;;;;;0.50;0.00;;;;;21.09;35.05;98614.34;5058097;28;45596;-52
2021/12/10 06:12:03;;;;;;;;;1.25;0.00;;;;;21.09;34.85;98622.25;5058604;28;45472;-51
2021/12/10 06:14:29;;;;;;;;;0.75;0.50;;;;;21.12;35.25;98614.03;5058267;28;45250;-51
2021/12/10 06:16:55;;;;;;;;;1.75;1.00;;;;;21.12;34.95;98630.69;5058535;28;45169;-53
2021/12/10 06:19:22;;;;;;;;;2.00;0.00;;;;;21.14;35.63;98625.25;5057780;28;46439;-54
2021/12/10 06:21:49;;;;;;;;;0.00;0.00;;;;;21.14;35.18;98627.91;5058053;28;45259;-52
2021/12/10 06:24:14;;;;;;;;;0.25;0.25;;;;;21.16;35.05;98625.97;5058093;28;45438;-54
2021/12/10 06:26:40;;;;;;;;;0.50;0.50;;;;;21.15;34.83;98635.69;5057994;28;45589;-52
2021/12/10 06:29:06;;;;;;;;;3.50;1.00;;;;;21.14;34.80;98643.69;5058232;28;45370;-53
2021/12/10 06:31:33;;;;;;;;;2.00;1.00;;;;;21.15;35.19;98650.63;5058299;28;45380;-51
2021/12/10 06:33:59;;;;;;;;;1.00;0.75;;;;;21.14;34.94;98649.81;5058090;28;45380;-50
2021/12/10 06:36:25;;;;;;;;;0.50;0.50;;;;;21.14;34.86;98655.09;5058330;28;45240;-50
2021/12/10 06:38:51;;;;;;;;;0.00;0.00;;;;;21.15;34.70;98661.16;5057651;28;47215;-51
2021/12/10 06:41:17;;;;;;;;;0.50;0.50;;;;;21.14;34.79;98665.63;5057805;28;45252;-50
2021/12/10 06:43:44;;;;;;;;;1.00;1.00;;;;;21.12;34.89;98672.81;5057933;28;45344;-52
2021/12/10 06:46:11;;;;;;;;;2.25;0.00;;;;;21.13;35.32;98678.91;5058116;28;45527;-51
2021/12/10 06:48:37;;;;;;;;;0.00;0.00;;;;;21.13;34.76;98685.03;5058022;28;45367;-50
2021/12/10 06:51:09;;;;;;;;;0.00;0.00;;;;;21.11;35.13;98689.59;5057596;28;45523;-49
2021/12/10 06:53:37;;;;;;;;;3.25;1.00;;;;;21.11;35.11;98691.41;5058274;28;45394;-50
2021/12/10 06:56:04;;;;;;;;;1.00;1.00;;;;;21.11;35.06;98702.78;5057841;28;45281;-52
2021/12/10 06:58:32;;;;;;;;;2.00;0.00;;;;;21.09;35.07;98698.63;5057487;28;45275;-52
2021/12/10 07:01:22;;;;;;;;;1.50;1.00;;;;;21.08;34.80;98705.69;5057363;28;45637;-52
2021/12/10 07:03:49;;;;;;;;;1.00;1.00;;;;;21.08;35.02;98726.75;5057701;28;45481;-53
2021/12/10 07:06:15;;;;;;;;;1.00;0.00;;;;;21.05;34.79;98728.84;5057692;28;45398;-53
2021/12/10 07:08:43;;;;;;;;;0.25;0.25;;;;;21.04;34.77;98735.06;5057233;28;47384;-53
2021/12/10 07:11:11;;;;;;;;;2.00;2.00;;;;;21.03;35.03;98733.41;5057525;28;45288;-53
2021/12/10 07:13:38;;;;;;;;;1.50;1.50;;;;;20.99;35.32;98760.03;5057758;28;45332;-53
2021/12/10 07:16:06;;;;;;;;;1.00;1.00;;;;;20.99;34.76;98751.28;5057783;28;45381;-54
2021/12/10 07:18:32;;;;;;;;;1.25;1.00;;;;;20.97;34.72;98775.16;5056959;28;45460;-53
2021/12/10 07:21:00;;;;;;;;;3.00;1.50;;;;;20.95;35.03;98769.19;5056972;28;45697;-54
2021/12/10 07:23:25;;;;;;;;;0.00;0.00;;;;;20.94;34.92;98791.22;5057193;28;45362;-54
2021/12/10 07:25:51;;;;;;;;;1.25;1.25;;;;;20.91;35.23;98780.94;5039267;28;45396;-53
2021/12/10 07:28:17;;;;;;;;;1.00;0.00;;;;;20.87;34.77;98795.38;5057049;28;45633;-51
2021/12/10 07:30:43;;;;;;;;;1.75;0.75;;;;;20.84;35.29;98791.19;5056938;28;45422;-51
2021/12/10 07:33:09;;;;;;;;;0.00;0.00;;;;;20.82;35.22;98813.38;5057353;28;45371;-51
2021/12/10 07:35:37;;;;;;;;;0.75;0.75;;;;;20.78;35.57;98818.06;5057179;28;45178;-52
2021/12/10 07:38:04;;;;;;;;;2.00;1.00;;;;;20.78;35.59;98825.16;5056035;28;46175;-52
2021/12/10 07:40:31;;;;;;;;;1.00;1.00;;;;;20.78;35.15;98827.78;5057010;28;45806;-56
2021/12/10 07:42:58;;;;;;;;;1.50;1.00;;;;;20.77;35.01;98849.81;5056936;28;45330;-54
2021/12/10 07:45:24;;;;;;;;;1.00;1.00;;;;;20.75;35.35;98843.84;5056972;28;45430;-52
2021/12/10 07:47:53;;;;;;;;;2.50;1.00;;;;;20.74;35.69;98863.22;5056654;28;46629;-53
2021/12/10 07:50:24;;;;;;;;;0.50;0.50;;;;;20.72;35.28;98855.47;5056457;28;45639;-52
2021/12/10 07:52:55;;;;;;;;;0.25;0.00;;;;;20.72;35.66;98859.88;5038537;28;45263;-52
2021/12/10 07:55:22;;;;;;;;;0.75;0.75;;;;;20.64;35.08;98850.84;5056773;28;45376;-50
2021/12/10 07:57:50;;;;;;;;;1.50;0.00;;;;;20.70;35.61;98862.66;5056606;28;46818;-52
2021/12/10 08:00:16;;;;;;;;;2.75;1.00;;;;;20.67;35.36;98874.25;5056371;28;45664;-52
2021/12/10 08:02:43;;;;;;;;;3.50;1.00;;;;;20.67;35.47;98878.69;5056698;28;45297;-53
2021/12/10 08:05:09;;;;;;;;;1.00;1.00;;;;;20.66;35.25;98863.88;5057190;28;45154;-53
2021/12/10 08:07:35;;;;;;;;;0.75;0.00;;;;;20.64;35.33;98895.59;5056381;28;46468;-52
2021/12/10 08:10:00;;;;;;;;;1.50;1.00;;;;;20.65;35.46;98897.28;5056411;28;45368;-53
2021/12/10 08:12:26;;;;;;;;;1.00;1.00;;;;;20.65;35.56;98901.69;5056593;28;45422;-51
2021/12/10 08:14:53;;;;;;;;;0.25;0.25;;;;;20.62;35.27;98910.69;5056558;28;45594;-52
2021/12/10 08:17:23;;;;;;;;;2.00;0.00;;;;;20.62;35.40;98918.59;5056012;28;47484;-53
2021/12/10 08:19:50;;;;;;;;;0.75;0.75;;;;;20.61;35.72;98916.91;5056207;28;45844;-52
2021/12/10 08:22:17;;;;;;;;;0.25;0.25;;;;;20.60;35.34;98930.22;5056464;28;45329;-51
2021/12/10 08:24:43;;;;;;;;;0.75;0.25;;;;;20.59;35.88;98939.91;5056696;28;45577;-52
2021/12/10 08:27:10;;;;;;;;;0.00;0.00;;;;;20.59;35.46;98939.91;5056527;28;46191;-48
2021/12/10 08:29:35;;;;;;;;;2.00;0.25;;;;;20.57;35.66;98939.19;5056081;28;45217;-51
2021/12/10 08:32:02;;;;;;;;;0.00;0.00;;;;;20.57;35.27;98952.34;5056273;28;45341;-49
2021/12/10 08:34:29;;;;;;;;;1.00;1.00;;;;;20.54;35.61;98955.25;5056464;28;45550;-51
2021/12/10 08:36:55;;;;;;;;;0.50;0.50;;;;;20.53;35.83;98962.31;5056253;28;45386;-52
2021/12/10 08:39:21;;;;;;;;;0.00;0.00;;;;;20.53;35.61;98967.56;5056169;28;45388;-53
2021/12/10 08:41:46;;;;;;;;;0.00;0.00;;;;;20.52;35.60;98972.97;5056302;28;45434;-52
2021/12/10 08:44:13;;;;;;;;;2.00;0.25;;;;;20.52;35.53;98979.06;5056386;28;45633;-53
2021/12/10 08:46:41;;;;;;;;;1.00;1.00;;;;;20.51;35.52;98989.72;5056091;28;46416;-51
2021/12/10 08:49:08;;;;;;;;;0.50;0.00;;;;;20.48;35.19;98993.47;5055966;28;45739;-53
2021/12/10 08:51:40;;;;;;;;;1.00;1.00;;;;;20.49;35.34;98991.66;5059726;28;45284;-54
2021/12/10 08:54:06;;;;;;;;;0.00;0.00;;;;;20.47;35.11;99012.00;5059771;28;45186;-51
2021/12/10 08:56:33;;;;;;;;;2.25;0.75;;;;;20.48;35.14;99005.75;5059429;28;46599;-53
2021/12/10 08:59:00;;;;;;;;;0.75;0.75;;;;;20.47;35.28;99014.63;5059313;28;45840;-53
2021/12/10 09:01:31;;;;;;;;;2.00;0.00;;;;;20.46;35.31;99013.81;5059625;28;45465;-51
2021/12/10 09:04:01;;;;;;;;;0.00;0.00;;;;;20.44;35.26;99026.25;5059457;28;45327;-54
2021/12/10 09:06:29;;;;;;;;;1.00;1.00;;;;;20.45;35.83;99016.56;5059427;28;46453;-53
2021/12/10 09:08:56;;;;;;;;;0.00;0.00;;;;;20.45;35.48;99030.56;5041272;28;45739;-53
2021/12/10 09:11:23;;;;;;;;;2.00;0.00;;;;;20.45;35.32;99025.28;5041305;28;45321;-52
2021/12/10 09:13:49;;;;;;;;;0.00;0.00;;;;;20.44;35.47;99033.31;5059605;28;45473;-53
2021/12/10 09:16:24;;;;;;;;;0.00;0.00;;;;;20.42;35.74;99046.59;5059158;28;45377;-52
2021/12/10 09:18:52;;;;;;;;;0.00;0.00;;;;;20.42;35.63;99043.97;5059068;28;45493;-51
2021/12/10 09:21:18;;;;;;;;;2.00;1.75;;;;;20.41;35.51;99046.72;5059256;28;45346;-53
2021/12/10 09:23:44;;;;;;;;;0.75;0.00;;;;;20.39;35.08;99060.03;5059731;28;45566;-53
2021/12/10 09:26:14;;;;;;;;;0.75;0.00;;;;;20.41;35.82;99067.78;5058871;28;46485;-54
2021/12/10 09:28:42;;;;;;;;;1.00;1.00;;;;;20.39;35.24;99070.53;5059440;28;45392;-53
2021/12/10 09:31:09;;;;;;;;;0.00;0.00;;;;;20.39;35.29;99071.38;5058979;28;45404;-48
2021/12/10 09:33:35;;;;;;;;;0.50;0.00;;;;;20.41;35.36;99079.13;5059246;28;45332;-50
2021/12/10 09:36:02;;;;;;;;;3.00;1.00;;;;;20.40;35.37;99082.72;5058790;28;45268;-52
2021/12/10 09:38:28;;;;;;;;;0.00;0.00;;;;;20.40;35.84;99082.72;5058808;28;45237;-48
2021/12/10 09:41:02;;;;;;;;;1.00;1.00;;;;;20.38;35.66;99096.00;5058660;28;45305;-48
2021/12/10 09:43:27;;;;;;;;;1.00;1.00;;;;;20.38;35.58;99101.28;5040797;28;45621;-48
2021/12/10 09:45:55;;;;;;;;;3.75;0.75;;;;;20.38;35.31;99095.19;5058549;28;46490;-51
2021/12/10 09:48:22;;;;;;;;;0.00;0.00;;;;;20.38;35.12;99111.78;5058719;28;45426;-52
2021/12/10 09:50:58;;;;;;;;;0.25;0.25;;;;;20.38;35.30;99111.78;5058559;28;45350;-53
2021/12/10 09:53:27;;;;;;;;;0.25;0.25;;;;;20.37;35.19;99120.66;5058617;28;45493;-53
2021/12/10 09:55:54;;;;;;;;;2.25;1.00;;;;;20.36;35.62;99121.59;5058253;28;45486;-52
2021/12/10 09:58:20;;;;;;;;;0.50;0.25;;;;;20.35;35.33;99127.81;5058573;28;45798;-52
2021/12/10 10:00:53;;;;;;;;;0.00;0.00;;;;;20.34;35.00;99126.16;5058656;28;45392;-50
2021/12/10 10:03:22;;;;;;;;;1.00;1.00;;;;;20.34;35.05;99126.16;5058398;28;45554;-48
2021/12/10 10:05:47;;;;;;;;;2.75;2.00;;;;;20.29;34.93;99123.06;5058271;28;46411;-51
2021/12/10 10:08:21;;;;;;;;;0.50;0.50;;;;;20.29;35.30;99125.72;5058652;28;45384;-51
2021/12/10 10:10:50;;;;;;;;;1.00;0.00;;;;;20.33;35.33;99131.53;5058587;28;45411;-50
2021/12/10 10:13:21;;;;;;;;;0.00;0.00;;;;;20.35;35.38;99142.78;5058948;28;45439;-48
2021/12/10 10:15:49;;;;;;;;;2.00;2.00;;;;;20.36;35.31;99153.19;5040436;28;47192;-51
2021/12/10 10:18:16;;;;;;;;;0.00;0.00;;;;;20.36;35.16;99155.00;5058242;28;45399;-51
2021/12/10 10:20:45;;;;;;;;;1.50;0.50;;;;;20.35;35.53;99153.31;5040293;28;45278;-53
2021/12/10 10:23:13;;;;;;;;;2.25;1.50;;;;;20.36;34.85;99162.88;5058272;28;45648;-52
2021/12/10 10:25:43;;;;;;;;;1.00;1.00;;;;;20.34;35.03;99170.88;5058025;28;46622;-53
2021/12/10 10:28:11;;;;;;;;;0.00;0.00;;;;;20.31;35.02;99163.25;5058223;28;45458;-53
2021/12/10 10:30:46;;;;;;;;;2.00;1.00;;;;;20.33;35.38;99165.75;5057866;28;45383;-52
2021/12/10 10:33:12;;;;;;;;;1.00;1.00;;;;;20.32;34.82;99174.59;5057972;28;45525;-53
2021/12/10 10:35:45;;;;;;;;;1.00;1.00;;;;;20.31;35.52;99184.31;5057772;28;46192;-51
2021/12/10 10:38:12;;;;;;;;;2.00;1.00;;;;;20.32;35.22;99191.25;5057737;28;45525;-52
2021/12/10 10:40:44;;;;;;;;;3.00;0.00;;;;;20.30;35.20;99182.63;5058070;28;45463;-47
2021/12/10 10:43:10;;;;;;;;;1.00;1.00;;;;;20.30;34.86;99198.41;5058087;28;45345;-49
2021/12/10 10:45:39;;;;;;;;;1.50;1.25;;;;;20.29;35.32;99198.53;5039403;28;48230;-48
2021/12/10 10:48:06;;;;;;;;;1.00;1.00;;;;;20.26;34.96;99207.50;5057667;28;45513;-50
2021/12/10 10:50:52;;;;;;;;;3.00;1.00;;;;;20.25;34.94;99216.34;5039685;28;45384;-49
2021/12/10 10:53:21;;;;;;;;;2.00;1.00;;;;;20.21;34.83;99199.97;5058330;28;45382;-52
2021/12/10 10:55:56;;;;;;;;;1.25;0.00;;;;;20.20;35.19;99203.56;5057736;28;45378;-53
2021/12/10 10:58:25;;;;;;;;;2.00;2.00;;;;;20.21;35.10;99209.69;5057470;28;45890;-53
2021/12/10 11:01:03;;;;;;;;;1.00;1.00;;;;;20.20;34.77;99205.38;5057478;28;45224;-52
2021/12/10 11:03:40;;;;;;;;;0.75;0.75;;;;;20.20;35.07;99202.75;5057792;28;45280;-53
2021/12/10 11:06:14;;;;;;;;;0.75;0.25;;;;;20.18;35.17;99209.91;5057295;28;46338;-52
2021/12/10 11:08:46;;;;;;;;;1.00;1.00;;;;;20.18;34.73;99221.25;5039029;28;45311;-53
2021/12/10 11:11:20;;;;;;;;;1.25;0.50;;;;;20.18;34.61;99241.47;5057308;28;45333;-51
2021/12/10 11:13:50;;;;;;;;;0.50;0.00;;;;;20.18;35.18;99247.56;5038658;28;45325;-53
2021/12/10 11:16:20;;;;;;;;;1.75;0.25;;;;;20.17;34.89;99245.06;5039221;28;48542;-52
2021/12/10 11:18:56;;;;;;;;;1.00;1.00;;;;;20.17;34.81;99266.97;5039188;28;45381;-54
2021/12/10 11:21:43;;;;;;;;;2.50;1.00;;;;;20.16;34.87;99259.19;5057233;28;45266;-52
2021/12/10 11:24:15;;;;;;;;;2.00;1.00;;;;;20.15;34.60;99258.34;5057343;28;45574;-52
2021/12/10 11:26:57;;;;;;;;;1.00;1.00;;;;;20.15;34.75;99239.94;5056821;28;47269;-51
2021/12/10 11:29:41;;;;;;;;;1.25;1.25;;;;;20.14;34.69;99259.31;5056803;28;45894;-54
2021/12/10 11:32:09;;;;;;;;;2.00;1.00;;;;;20.15;34.73;99263.63;5057231;28;45471;-51
2021/12/10 11:34:54;;;;;;;;;1.75;0.25;;;;;20.16;35.01;99272.31;5057254;28;45327;-54
2021/12/10 11:37:44;;;;;;;;;3.75;1.00;;;;;20.17;35.01;99264.34;5057052;28;46515;-54
2021/12/10 11:40:27;;;;;;;;;0.75;0.75;;;;;20.20;35.12;99279.03;5056880;28;45516;-53
2021/12/10 11:42:59;;;;;;;;;2.50;1.25;;;;;20.23;34.78;99276.13;5056923;28;45320;-52
2021/12/10 11:45:32;;;;;;;;;2.00;0.50;;;;;20.29;35.00;99285.34;5057016;28;45343;-53
2021/12/10 11:48:07;;;;;;;;;2.00;1.00;;;;;20.32;34.69;99280.69;5056857;28;46201;-53